Time;durP1;ratioP1;P1;durP2;ratioP2;P2;SDS_P1;SDS_P2;PMS_P1;PMS_P2;Temp;Humidity;BMP_temperature;BMP_pressure;BME280_temperature;BME280_humidity;BME280_pressure;Samples;Min_cycle;Max_cycle;Signal;HPM_P1;HPM_P2
2021/06/21 00:00:46;;;;;;;5.80;1.95;;;;;;;;;;5040140;28;20025;-61
2021/06/21 00:03:18;;;;;;;8.98;2.35;;;14.60;99.90;;;;;;5039803;28;20424;-62
2021/06/21 00:05:44;;;;;;;5.32;1.73;;;13.90;99.90;;;;;;5039797;28;20077;-61
2021/06/21 00:08:10;;;;;;;8.27;1.63;;;14.10;99.90;;;;;;5040105;28;20532;-62
2021/06/21 00:10:36;;;;;;;5.20;1.60;;;13.90;99.90;;;;;;5039663;28;20026;-61
2021/06/21 00:13:02;;;;;;;2.10;1.40;;;;;;;;;;5039905;28;20366;-61
2021/06/21 00:15:29;;;;;;;4.68;1.52;;;13.70;99.90;;;;;;5039488;28;20528;-61
2021/06/21 00:17:55;;;;;;;5.65;1.70;;;14.00;99.90;;;;;;5039673;28;20027;-61
2021/06/21 00:20:22;;;;;;;7.50;1.73;;;13.90;99.90;;;;;;5039286;28;20053;-61
2021/06/21 00:22:49;;;;;;;12.23;2.53;;;14.00;99.90;;;;;;5039623;28;20020;-61
2021/06/21 00:25:15;;;;;;;8.18;1.85;;;13.70;99.90;;;;;;5039370;28;20080;-61
2021/06/21 00:27:42;;;;;;;2.47;1.67;;;13.90;99.90;;;;;;5039792;28;20029;-61
2021/06/21 00:30:11;;;;;;;4.65;1.58;;;13.70;99.90;;;;;;5039485;28;20112;-61
2021/06/21 00:32:39;;;;;;;6.20;1.77;;;13.90;99.90;;;;;;5039762;28;20116;-61
2021/06/21 00:35:06;;;;;;;5.07;1.60;;;13.50;99.90;;;;;;5039558;28;20029;-61
2021/06/21 00:37:32;;;;;;;6.18;1.70;;;13.60;99.90;;;;;;5039316;28;20037;-61
2021/06/21 00:39:58;;;;;;;5.55;1.67;;;13.50;99.90;;;;;;5039016;28;20025;-61
2021/06/21 00:42:24;;;;;;;4.95;1.48;;;13.50;99.90;;;;;;5039106;28;20520;-61
2021/06/21 00:44:50;;;;;;;2.28;1.23;;;13.80;99.90;;;;;;5038912;28;20405;-61
2021/06/21 00:47:18;;;;;;;2.97;1.40;;;13.50;99.90;;;;;;5039201;28;20025;-61
2021/06/21 00:49:44;;;;;;;5.60;1.70;;;13.50;99.90;;;;;;5038736;28;20041;-61
2021/06/21 00:52:16;;;;;;;3.10;1.50;;;13.40;99.90;;;;;;5039425;28;20029;-61
2021/06/21 00:54:42;;;;;;;4.82;1.95;;;13.30;99.90;;;;;;5038606;28;20025;-61
2021/06/21 00:57:08;;;;;;;5.47;1.48;;;13.30;99.90;;;;;;5039004;28;20031;-61
2021/06/21 00:59:35;;;;;;;2.47;1.25;;;13.40;99.90;;;;;;5038614;28;20112;-61
2021/06/21 01:02:00;;;;;;;3.80;1.60;;;13.40;99.90;;;;;;5038905;28;20028;-61
2021/06/21 01:04:27;;;;;;;3.88;1.30;;;;;;;;;;5038609;28;20029;-61
2021/06/21 01:06:53;;;;;;;7.95;1.58;;;;;;;;;;5038828;28;20068;-61
2021/06/21 01:09:19;;;;;;;3.65;1.65;;;13.00;99.90;;;;;;5038614;28;20037;-61
2021/06/21 01:12:29;;;;;;;4.20;1.50;;;13.50;99.90;;;;;;5038969;28;20034;-61
2021/06/21 01:15:03;;;;;;;3.83;1.50;;;;;;;;;;5018500;28;20092;-61
2021/06/21 01:17:33;;;;;;;5.63;1.40;;;;;;;;;;5038407;28;20033;-61
2021/06/21 01:20:14;;;;;;;5.43;1.65;;;;;;;;;;5038322;28;20026;-61
2021/06/21 01:22:58;;;;;;;4.35;1.60;;;13.10;99.90;;;;;;5018744;28;20030;-61
2021/06/21 01:25:31;;;;;;;4.15;1.35;;;;;;;;;;5018462;28;20026;-61
2021/06/21 01:28:35;;;;;;;1.20;1.10;;;13.00;99.90;;;;;;5018715;28;20063;-61
2021/06/21 01:31:20;;;;;;;5.53;1.40;;;12.60;99.90;;;;;;5037879;28;20049;-61
2021/06/21 01:33:47;;;;;;;2.08;1.27;;;;;;;;;;5037987;28;20512;-61
2021/06/21 01:36:16;;;;;;;1.00;1.00;;;;;;;;;;5038686;28;20390;-61
2021/06/21 01:38:47;;;;;;;4.90;1.70;;;;;;;;;;5038033;28;20037;-61
2021/06/21 01:41:21;;;;;;;4.72;1.85;;;;;;;;;;5038044;28;20048;-62
2021/06/21 01:43:51;;;;;;;8.75;2.00;;;;;;;;;;5038108;28;20029;-61
2021/06/21 01:46:23;;;;;;;9.18;2.10;;;;;;;;;;5038071;28;20048;-61
2021/06/21 01:48:59;;;;;;;5.63;2.13;;;;;;;;;;5037884;28;20104;-61
2021/06/21 01:51:26;;;;;;;1.67;1.38;;;;;;;;;;5037871;28;20041;-61
2021/06/21 01:54:00;;;;;;;6.63;1.67;;;;;;;;;;5037976;28;20029;-61
2021/06/21 01:56:37;;;;;;;6.03;1.80;;;;;;;;;;5037950;28;20030;-61
2021/06/21 01:59:11;;;;;;;4.63;1.50;;;;;;;;;;5037577;28;20026;-61
2021/06/21 02:01:43;;;;;;;5.25;1.52;;;;;;;;;;5038131;28;20021;-62
2021/06/21 02:04:15;;;;;;;10.18;2.30;;;;;;;;;;5037561;28;20029;-61
2021/06/21 02:06:47;;;;;;;1.55;1.30;;;;;;;;;;5037415;28;20032;-61
2021/06/21 02:09:16;;;;;;;6.05;2.05;;;;;;;;;;5037411;28;20040;-61
2021/06/21 02:11:44;;;;;;;3.30;1.73;;;;;;;;;;5037625;28;20022;-61
2021/06/21 02:14:12;;;;;;;3.70;1.67;;;;;;;;;;5037457;28;20413;-61
2021/06/21 02:16:40;;;;;;;4.97;1.42;;;;;;;;;;5037460;28;20498;-61
2021/06/21 02:19:08;;;;;;;1.73;1.40;;;;;;;;;;5036977;28;20034;-61
2021/06/21 02:21:37;;;;;;;5.05;1.30;;;;;;;;;;5037383;28;20025;-61
2021/06/21 02:24:05;;;;;;;4.10;1.80;;;;;;;;;;5037160;28;20498;-61
2021/06/21 02:26:38;;;;;;;4.43;1.80;;;;;;;;;;5037389;28;20017;-61
2021/06/21 02:29:08;;;;;;;7.00;1.80;;;;;;;;;;5037479;28;20032;-61
2021/06/21 02:31:34;;;;;;;10.38;1.85;;;13.40;99.90;;;;;;5036901;28;20068;-61
2021/06/21 02:34:03;;;;;;;2.03;1.20;;;;;;;;;;5037021;28;20393;-61
2021/06/21 02:36:30;;;;;;;1.58;1.35;;;;;;;;;;5037387;28;20026;-61
2021/06/21 02:38:59;;;;;;;4.97;2.35;;;13.70;99.90;;;;;;5037228;28;20021;-61
2021/06/21 02:41:30;;;;;;;1.85;1.45;;;;;;;;;;5037027;28;20034;-61
2021/06/21 02:43:56;;;;;;;5.60;1.52;;;13.90;99.90;;;;;;5036947;28;20021;-61
2021/06/21 02:46:22;;;;;;;1.55;1.45;;;13.60;99.90;;;;;;5036898;28;20525;-61
2021/06/21 02:48:48;;;;;;;2.42;1.25;;;;;;;;;;5036706;28;20025;-61
2021/06/21 02:51:16;;;;;;;3.38;1.45;;;;;;;;;;5036855;28;20481;-61
2021/06/21 02:54:16;;;;;;;5.15;1.60;;;13.50;99.90;;;;;;5036923;28;20071;-61
2021/06/21 02:56:49;;;;;;;4.80;1.40;;;13.60;99.90;;;;;;5036906;28;20493;-61
2021/06/21 02:59:19;;;;;;;5.05;1.95;;;13.80;99.90;;;;;;5036549;28;20048;-61
2021/06/21 03:01:50;;;;;;;1.60;1.50;;;14.00;99.90;;;;;;5036764;28;20481;-61
2021/06/21 03:04:18;;;;;;;8.27;2.72;;;13.50;99.90;;;;;;5036580;28;20026;-61
2021/06/21 03:06:46;;;;;;;4.35;1.65;;;13.70;99.90;;;;;;5036767;28;20032;-61
2021/06/21 03:09:16;;;;;;;8.85;1.65;;;13.30;99.90;;;;;;5036615;28;20378;-61
2021/06/21 03:11:43;;;;;;;5.57;2.08;;;13.70;99.90;;;;;;5036795;28;20021;-62
2021/06/21 03:14:10;;;;;;;4.03;1.67;;;13.80;99.90;;;;;;5036548;28;20023;-61
2021/06/21 03:16:38;;;;;;;3.28;1.50;;;14.00;99.90;;;;;;5036486;28;20028;-61
2021/06/21 03:19:04;;;;;;;2.75;1.40;;;13.40;99.90;;;;;;5036193;28;20033;-61
2021/06/21 03:21:30;;;;;;;1.50;1.40;;;13.60;99.90;;;;;;5036476;28;20508;-61
2021/06/21 03:23:56;;;;;;;1.92;1.33;;;13.40;99.90;;;;;;5036439;28;20021;-61
2021/06/21 03:26:30;;;;;;;4.72;1.80;;;13.90;99.90;;;;;;5036614;28;20030;-62
2021/06/21 03:28:57;;;;;;;4.00;1.92;;;13.80;99.90;;;;;;5036114;28;20370;-61
2021/06/21 03:31:25;;;;;;;3.40;1.40;;;13.30;99.90;;;;;;5036254;28;20049;-61
2021/06/21 03:33:52;;;;;;;4.97;1.67;;;13.70;99.90;;;;;;5036199;28;20041;-61
2021/06/21 03:36:18;;;;;;;6.30;2.10;;;13.90;99.90;;;;;;5037073;28;20604;-61
2021/06/21 03:38:46;;;;;;;4.32;2.05;;;13.80;99.90;;;;;;5036216;28;20068;-61
2021/06/21 03:41:12;;;;;;;3.45;1.60;;;;;;;;;;5036538;28;20449;-61
2021/06/21 03:43:39;;;;;;;6.70;1.60;;;;;;;;;;5036361;28;20022;-61
2021/06/21 03:46:06;;;;;;;2.08;1.50;;;;;;;;;;5036141;28;20025;-61
2021/06/21 03:48:32;;;;;;;1.60;1.42;;;;;;;;;;5035846;28;20477;-61
2021/06/21 03:51:01;;;;;;;7.32;2.00;;;;;;;;;;5036163;28;20052;-61
2021/06/21 03:53:30;;;;;;;7.70;2.05;;;;;;;;;;5036254;28;20025;-61
2021/06/21 03:55:56;;;;;;;8.25;1.88;;;;;;;;;;5036207;28;20029;-61
2021/06/21 03:58:23;;;;;;;10.38;2.22;;;;;;;;;;5036271;28;20037;-61
2021/06/21 04:00:49;;;;;;;5.00;2.67;;;;;;;;;;5035954;28;20079;-61
2021/06/21 04:03:16;;;;;;;8.57;1.98;;;;;;;;;;5036007;28;20037;-61
2021/06/21 04:05:42;;;;;;;3.67;1.55;;;;;;;;;;5036117;28;20030;-61
2021/06/21 04:08:09;;;;;;;2.33;1.60;;;;;;;;;;5036483;28;20075;-60
2021/06/21 04:10:37;;;;;;;3.55;1.75;;;;;;;;;;5035884;28;20383;-61
2021/06/21 04:13:03;;;;;;;6.25;1.38;;;;;;;;;;5036054;28;20212;-63
2021/06/21 04:15:33;;;;;;;2.65;1.30;;;;;;;;;;5035914;28;20075;-61
2021/06/21 04:18:03;;;;;;;9.82;2.25;;;;;;;;;;5034262;28;20474;-61
2021/06/21 04:20:30;;;;;;;11.95;1.85;;;;;;;;;;5032790;28;20052;-61
2021/06/21 04:22:56;;;;;;;3.97;1.67;;;;;;;;;;5035424;28;20049;-61
2021/06/21 04:25:23;;;;;;;5.68;1.92;;;;;;;;;;5035555;28;20478;-61
2021/06/21 04:27:49;;;;;;;7.03;1.70;;;;;;;;;;5035569;28;20033;-61
2021/06/21 04:30:18;;;;;;;8.70;1.85;;;;;;;;;;5039108;28;20125;-61
2021/06/21 04:32:44;;;;;;;4.95;1.90;;;;;;;;;;5039673;28;20065;-62
2021/06/21 04:35:11;;;;;;;7.45;2.15;;;;;;;;;;5039128;28;20029;-61
2021/06/21 04:37:38;;;;;;;6.88;2.20;;;14.40;99.90;;;;;;5027899;28;20113;-62
2021/06/21 04:40:07;;;;;;;4.57;1.52;;;;;;;;;;5019408;28;20112;-61
2021/06/21 04:42:33;;;;;;;5.18;1.75;;;14.30;99.90;;;;;;5019150;28;20240;-61
2021/06/21 04:45:00;;;;;;;7.07;2.05;;;;;;;;;;5018156;28;20492;-61
2021/06/21 04:47:26;;;;;;;7.05;2.20;;;14.60;99.90;;;;;;5019523;28;20022;-61
2021/06/21 04:49:52;;;;;;;9.00;1.42;;;14.80;99.90;;;;;;5018847;28;20060;-61
2021/06/21 04:52:20;;;;;;;7.90;2.55;;;14.50;99.90;;;;;;5019341;28;20386;-61
2021/06/21 04:54:49;;;;;;;9.00;2.25;;;14.50;99.90;;;;;;5019066;28;20502;-61
2021/06/21 04:57:16;;;;;;;12.57;2.88;;;14.70;99.90;;;;;;5019146;28;20033;-62
2021/06/21 04:59:42;;;;;;;12.10;1.90;;;14.50;99.90;;;;;;5019116;28;20385;-62
2021/06/21 05:02:08;;;;;;;3.72;1.42;;;14.70;99.90;;;;;;5019242;28;20080;-61
2021/06/21 05:04:34;;;;;;;6.15;1.70;;;14.50;99.90;;;;;;5018762;28;20025;-62
2021/06/21 05:07:00;;;;;;;2.05;1.48;;;14.60;99.90;;;;;;5019160;28;20025;-61
2021/06/21 05:09:26;;;;;;;6.78;2.50;;;14.50;99.90;;;;;;5018855;28;20026;-61
2021/06/21 05:11:52;;;;;;;8.80;2.85;;;14.10;99.90;;;;;;5018867;28;20022;-61
2021/06/21 05:14:18;;;;;;;4.38;1.80;;;14.50;99.90;;;;;;5023862;28;20033;-62
2021/06/21 05:16:44;;;;;;;10.25;2.10;;;14.30;99.90;;;;;;5038625;28;20031;-61
2021/06/21 05:19:10;;;;;;;6.35;1.65;;;14.40;99.90;;;;;;5038434;28;20071;-61
2021/06/21 05:21:36;;;;;;;6.68;2.00;;;14.10;99.90;;;;;;5038543;28;20082;-61
2021/06/21 05:24:03;;;;;;;3.78;1.85;;;14.20;99.90;;;;;;5038444;28;20122;-62
2021/06/21 05:26:29;;;;;;;3.97;1.52;;;14.30;99.90;;;;;;5038515;28;20021;-61
2021/06/21 05:28:55;;;;;;;6.75;1.85;;;14.60;99.90;;;;;;5038142;28;20022;-61
2021/06/21 05:31:21;;;;;;;9.20;2.10;;;14.80;99.90;;;;;;5038118;28;20124;-61
2021/06/21 05:33:47;;;;;;;6.15;1.80;;;15.00;99.90;;;;;;5037952;28;20129;-61
2021/06/21 05:36:13;;;;;;;5.30;2.20;;;15.30;99.90;;;;;;5038867;28;20044;-62
2021/06/21 05:38:39;;;;;;;6.05;1.92;;;15.80;99.90;;;;;;5038244;28;20025;-61
2021/06/21 05:41:05;;;;;;;5.63;2.28;;;15.90;99.90;;;;;;5037074;28;20029;-61
2021/06/21 05:43:32;;;;;;;5.00;2.20;;;16.40;99.90;;;;;;5037873;28;20036;-61
2021/06/21 05:45:57;;;;;;;5.43;1.63;;;16.50;99.90;;;;;;5038120;28;20099;-62
2021/06/21 05:48:23;;;;;;;4.85;1.83;;;16.80;99.90;;;;;;5037696;28;20021;-62
2021/06/21 05:50:50;;;;;;;19.65;4.53;;;17.00;99.90;;;;;;5037938;28;20051;-61
2021/06/21 05:53:17;;;;;;;10.73;2.78;;;17.30;99.90;;;;;;5038000;28;20029;-61
2021/06/21 05:55:42;;;;;;;9.30;2.47;;;17.40;99.90;;;;;;5038046;28;20029;-62
2021/06/21 05:58:08;;;;;;;5.13;1.80;;;17.40;99.90;;;;;;5037924;28;20029;-61
2021/06/21 06:00:34;;;;;;;11.70;3.30;;;17.60;99.90;;;;;;5037702;28;20028;-62
2021/06/21 06:03:00;;;;;;;7.47;3.50;;;17.90;99.90;;;;;;5037371;28;20053;-62
2021/06/21 06:05:26;;;;;;;8.10;2.38;;;18.10;99.90;;;;;;5037773;28;20037;-62
2021/06/21 06:07:52;;;;;;;10.18;1.70;;;18.40;99.90;;;;;;5037466;28;20081;-62
2021/06/21 06:10:18;;;;;;;11.82;2.72;;;18.60;99.90;;;;;;5037796;28;20430;-62
2021/06/21 06:12:44;;;;;;;10.68;2.10;;;18.90;99.90;;;;;;5037351;28;20029;-62
2021/06/21 06:15:11;;;;;;;5.10;2.20;;;19.20;99.90;;;;;;5037837;28;20108;-62
2021/06/21 06:17:38;;;;;;;6.78;1.80;;;19.20;99.90;;;;;;5037242;28;20025;-62
2021/06/21 06:20:05;;;;;;;12.30;2.33;;;18.90;99.90;;;;;;5037187;28;20030;-62
2021/06/21 06:22:31;;;;;;;5.05;1.80;;;18.60;99.90;;;;;;5037293;28;20025;-62
2021/06/21 06:24:57;;;;;;;5.90;1.77;;;18.30;99.90;;;;;;5037381;28;20013;-62
2021/06/21 06:27:23;;;;;;;7.30;2.53;;;18.50;99.90;;;;;;5037148;28;20091;-61
2021/06/21 06:29:49;;;;;;;8.70;1.55;;;18.80;99.90;;;;;;5037063;28;20038;-62
2021/06/21 06:32:15;;;;;;;6.47;1.05;;;19.10;99.90;;;;;;5037234;28;20026;-62
2021/06/21 06:34:41;;;;;;;8.73;1.50;;;19.90;99.90;;;;;;5037144;28;20022;-63
2021/06/21 06:37:07;;;;;;;8.80;1.30;;;20.80;99.90;;;;;;5037400;28;20097;-62
2021/06/21 06:39:33;;;;;;;9.63;2.35;;;21.30;99.90;;;;;;5037077;28;20026;-62
2021/06/21 06:41:59;;;;;;;6.65;1.00;;;21.10;99.90;;;;;;5036756;28;20028;-62
2021/06/21 06:44:25;;;;;;;8.43;2.55;;;20.90;99.90;;;;;;5036900;28;20018;-62
2021/06/21 06:46:51;;;;;;;2.67;0.80;;;20.50;99.90;;;;;;5036979;28;20029;-62
2021/06/21 06:49:17;;;;;;;7.43;1.48;;;20.10;99.90;;;;;;5036631;28;20024;-63
2021/06/21 06:51:45;;;;;;;7.57;1.17;;;19.80;99.90;;;;;;5036550;28;20116;-62
2021/06/21 06:59:30;;;;;;;1.67;0.73;;;18.80;99.90;;;;;;5036974;28;20044;-62
2021/06/21 07:01:58;;;;;;;4.47;1.20;;;18.80;99.90;;;;;;5036879;28;20033;-62
2021/06/21 07:04:24;;;;;;;8.70;1.45;;;18.80;99.90;;;;;;5036468;28;20563;-62
2021/06/21 07:06:50;;;;;;;7.70;2.03;;;18.80;99.90;;;;;;5036692;28;20024;-62
2021/06/21 07:09:16;;;;;;;4.18;1.15;;;18.90;99.90;;;;;;5036595;28;20100;-62
2021/06/21 07:11:42;;;;;;;3.83;1.13;;;18.90;99.90;;;;;;5036976;28;20112;-61
2021/06/21 07:14:09;;;;;;;3.50;1.38;;;18.70;99.90;;;;;;5036656;28;20063;-63
2021/06/21 07:16:35;;;;;;;7.10;1.42;;;18.70;99.90;;;;;;5036725;28;20029;-61
2021/06/21 07:19:02;;;;;;;3.58;1.05;;;18.70;99.90;;;;;;5036426;28;20036;-62
2021/06/21 07:21:28;;;;;;;5.30;1.25;;;18.70;99.90;;;;;;5035222;28;20034;-62
2021/06/21 07:23:54;;;;;;;3.58;1.30;;;18.80;99.90;;;;;;5036430;28;20100;-62
2021/06/21 07:26:20;;;;;;;3.47;0.90;;;18.90;99.90;;;;;;5036534;28;20056;-62
2021/06/21 07:28:49;;;;;;;2.03;0.82;;;19.10;99.90;;;;;;5036316;28;20053;-62
2021/06/21 07:31:14;;;;;;;3.72;0.80;;;19.40;99.90;;;;;;5036259;28;20140;-62
2021/06/21 07:33:40;;;;;;;4.30;1.48;;;19.70;99.90;;;;;;5036159;28;20052;-62
2021/06/21 07:36:07;;;;;;;4.13;1.30;;;19.80;99.90;;;;;;5036688;28;20116;-62
2021/06/21 07:38:33;;;;;;;1.27;0.70;;;19.90;99.90;;;;;;5036385;28;20029;-62
2021/06/21 07:40:59;;;;;;;5.65;1.10;;;20.10;99.90;;;;;;5036307;28;20034;-62
2021/06/21 07:43:25;;;;;;;3.53;0.82;;;20.20;99.90;;;;;;5036271;28;20521;-62
2021/06/21 07:45:51;;;;;;;2.35;0.95;;;20.30;99.90;;;;;;5036437;28;20028;-62
2021/06/21 07:48:18;;;;;;;2.67;0.90;;;20.70;99.90;;;;;;5035970;28;20371;-62
2021/06/21 07:50:44;;;;;;;1.98;0.70;;;21.20;99.90;;;;;;5036225;28;20034;-62
2021/06/21 07:53:10;;;;;;;3.67;1.02;;;21.90;99.90;;;;;;5036333;28;20087;-62
2021/06/21 07:55:36;;;;;;;1.50;0.85;;;22.20;99.90;;;;;;5036119;28;20049;-62
2021/06/21 07:58:03;;;;;;;2.53;1.20;;;21.90;99.90;;;;;;5036037;28;20033;-62
2021/06/21 08:00:29;;;;;;;2.60;0.80;;;21.80;99.90;;;;;;5036255;28;20026;-62
2021/06/21 08:02:55;;;;;;;1.92;1.10;;;21.70;99.90;;;;;;5035990;28;20025;-62
2021/06/21 08:05:23;;;;;;;2.45;0.70;;;21.60;99.90;;;;;;5039941;28;20017;-62
2021/06/21 08:07:49;;;;;;;6.30;0.77;;;21.20;99.90;;;;;;5039782;28;20086;-62
2021/06/21 08:10:16;;;;;;;1.35;0.60;;;20.80;99.90;;;;;;5040070;28;20109;-62
2021/06/21 08:12:43;;;;;;;3.17;0.75;;;20.60;99.90;;;;;;5039929;28;20047;-62
2021/06/21 08:15:10;;;;;;;1.60;0.85;;;20.50;99.90;;;;;;5040044;28;20060;-62
2021/06/21 08:17:37;;;;;;;0.85;0.60;;;20.40;99.90;;;;;;5020635;28;20021;-62
2021/06/21 08:20:06;;;;;;;2.22;0.85;;;20.80;99.90;;;;;;5019814;28;20499;-62
2021/06/21 08:22:32;;;;;;;3.83;1.00;;;21.00;99.90;;;;;;5019883;28;20022;-62
2021/06/21 08:24:58;;;;;;;2.95;0.80;;;21.40;99.90;;;;;;5019958;28;20018;-62
2021/06/21 08:27:24;;;;;;;1.73;0.60;;;21.60;99.90;;;;;;5019868;28;20033;-62
2021/06/21 08:29:51;;;;;;;2.72;0.60;;;22.00;99.90;;;;;;5029375;28;20119;-62
2021/06/21 08:32:17;;;;;;;4.82;0.80;;;22.00;99.90;;;;;;5026488;28;20018;-62
2021/06/21 08:34:44;;;;;;;2.78;0.77;;;22.10;99.90;;;;;;5039225;28;20037;-62
2021/06/21 08:37:10;;;;;;;2.03;0.60;;;22.40;99.90;;;;;;5039119;28;20022;-62
2021/06/21 08:39:37;;;;;;;1.90;0.63;;;22.40;99.90;;;;;;5039304;28;20026;-62
2021/06/21 08:42:05;;;;;;;2.38;0.60;;;22.50;99.90;;;;;;5039165;28;20030;-63
2021/06/21 08:44:34;;;;;;;5.20;1.17;;;22.20;99.90;;;;;;5039172;28;20378;-62
2021/06/21 08:47:02;;;;;;;3.80;0.90;;;21.80;99.90;;;;;;5039347;28;20018;-62
2021/06/21 08:49:31;;;;;;;6.75;1.02;;;21.60;99.90;;;;;;5038849;28;20033;-62
2021/06/21 08:51:57;;;;;;;4.32;1.27;;;21.50;99.90;;;;;;5039332;28;20021;-62
2021/06/21 08:54:23;;;;;;;3.13;1.02;;;21.60;99.90;;;;;;5039149;28;20033;-62
2021/06/21 08:56:49;;;;;;;1.50;0.90;;;21.90;99.90;;;;;;5038853;28;20025;-62
2021/06/21 08:59:15;;;;;;;3.08;0.77;;;22.60;99.90;;;;;;5039049;28;20021;-63
2021/06/21 09:01:42;;;;;;;2.25;1.00;;;23.20;99.90;;;;;;5039172;28;20080;-62
2021/06/21 09:04:10;;;;;;;2.03;0.70;;;23.50;99.90;;;;;;5038945;28;20057;-63
2021/06/21 09:06:38;;;;;;;1.27;0.57;;;23.90;99.90;;;;;;5038815;28;20379;-62
2021/06/21 09:09:05;;;;;;;0.85;0.70;;;24.50;99.90;;;;;;5038908;28;20048;-63
2021/06/21 09:11:46;;;;;;;1.50;0.60;;;24.80;99.90;;;;;;5038848;28;20512;-63
2021/06/21 09:14:30;;;;;;;2.95;0.85;;;24.70;99.90;;;;;;5038665;28;20029;-62
2021/06/21 09:17:09;;;;;;;4.03;1.08;;;25.80;99.90;;;;;;5038729;28;20022;-62
2021/06/21 09:19:53;;;;;;;4.05;0.70;;;27.40;99.90;;;;;;5038553;28;20103;-63
2021/06/21 09:22:39;;;;;;;1.52;0.50;;;27.80;99.90;;;;;;5038422;28;20025;-63
2021/06/21 09:25:23;;;;;;;1.40;0.40;;;27.80;99.90;;;;;;5038421;28;20010;-63
2021/06/21 09:28:01;;;;;;;4.18;0.50;;;26.80;99.90;;;;;;5038564;28;20026;-63
2021/06/21 09:30:28;;;;;;;1.52;0.52;;;26.30;99.90;;;;;;5037972;28;20398;-62
2021/06/21 09:32:57;;;;;;;0.90;0.57;;;26.20;99.90;;;;;;5037991;28;20631;-62
2021/06/21 09:35:26;;;;;;;2.35;0.60;;;26.00;99.90;;;;;;5038419;28;20032;-62
2021/06/21 09:37:52;;;;;;;1.73;0.70;;;25.70;99.90;;;;;;5038331;28;20040;-63
2021/06/21 09:40:39;;;;;;;1.55;0.70;;;25.60;99.90;;;;;;5037968;28;20025;-63
2021/06/21 09:43:33;;;;;;;1.30;0.60;;;25.30;99.90;;;;;;5038148;28;20025;-62
2021/06/21 09:46:08;;;;;;;2.78;0.80;;;25.00;99.90;;;;;;5038006;28;20029;-63
2021/06/21 09:48:36;;;;;;;2.90;0.85;;;24.80;99.90;;;;;;5036614;28;20108;-63
2021/06/21 09:51:19;;;;;;;2.78;0.70;;;25.60;99.90;;;;;;5038064;28;20021;-62
2021/06/21 09:53:53;;;;;;;2.03;0.70;;;26.70;99.90;;;;;;5038299;28;20033;-63
2021/06/21 09:56:31;;;;;;;1.52;0.57;;;26.70;99.90;;;;;;5037958;28;20037;-63
2021/06/21 09:58:57;;;;;;;1.95;0.70;;;26.50;99.90;;;;;;5037816;28;20026;-62
2021/06/21 10:01:29;;;;;;;3.90;0.80;;;26.90;99.90;;;;;;5037675;28;20054;-63
2021/06/21 10:03:55;;;;;;;1.63;0.30;;;27.80;99.90;;;;;;5037473;28;20397;-63
2021/06/21 10:06:21;;;;;;;0.65;0.22;;;28.70;99.90;;;;;;5037674;28;20029;-63
2021/06/21 10:08:52;;;;;;;0.65;0.43;;;29.70;99.80;;;;;;5037721;28;20022;-63
2021/06/21 10:11:29;;;;;;;2.35;0.65;;;30.60;98.00;;;;;;5037799;28;20026;-63
2021/06/21 10:13:59;;;;;;;2.13;0.50;;;30.90;96.00;;;;;;5037302;28;20083;-63
2021/06/21 10:16:26;;;;;;;2.05;0.30;;;31.00;95.00;;;;;;5028309;28;20092;-63
2021/06/21 10:18:52;;;;;;;1.25;0.55;;;31.00;94.40;;;;;;5017566;28;20087;-60
2021/06/21 10:21:18;;;;;;;2.20;0.30;;;29.90;93.30;;;;;;5017824;28;20065;-60
2021/06/21 10:23:44;;;;;;;2.25;0.40;;;28.20;94.30;;;;;;5017736;28;20029;-60
2021/06/21 10:26:10;;;;;;;1.10;0.35;;;26.60;96.50;;;;;;5017297;28;20065;-60
2021/06/21 10:28:36;;;;;;;6.43;0.47;;;25.30;98.70;;;;;;5017367;28;20022;-60
2021/06/21 10:31:05;;;;;;;3.33;0.82;;;24.50;99.90;;;;;;5036882;28;20049;-62
2021/06/21 10:33:33;;;;;;;2.05;0.50;;;24.00;99.90;;;;;;5036893;28;20022;-63
2021/06/21 10:36:02;;;;;;;2.25;0.50;;;24.30;99.90;;;;;;5037698;28;20108;-62
2021/06/21 10:38:28;;;;;;;0.55;0.40;;;25.80;99.90;;;;;;5037257;28;20026;-63
2021/06/21 10:40:58;;;;;;;2.72;0.70;;;27.40;99.90;;;;;;5037214;28;20034;-63
2021/06/21 10:43:47;;;;;;;1.52;0.40;;;28.90;99.90;;;;;;5036746;28;20017;-63
2021/06/21 10:46:29;;;;;;;1.55;0.32;;;30.30;97.60;;;;;;5037279;28;20029;-64
2021/06/21 10:48:58;;;;;;;0.80;0.20;;;31.00;94.60;;;;;;5036849;28;20514;-63
2021/06/21 10:51:36;;;;;;;1.70;0.40;;;31.50;94.30;;;;;;5036952;28;20025;-63
2021/06/21 10:54:04;;;;;;;1.38;0.40;;;31.70;92.50;;;;;;5037028;28;20017;-61
2021/06/21 10:56:43;;;;;;;0.40;0.25;;;31.60;91.40;;;;;;5036684;28;20032;-61
2021/06/21 10:59:14;;;;;;;1.23;0.40;;;30.30;91.70;;;;;;5037112;28;20116;-61
2021/06/21 11:01:51;;;;;;;1.23;0.47;;;28.40;92.90;;;;;;5036849;28;20079;-60
2021/06/21 11:04:44;;;;;;;0.88;0.30;;;27.00;94.80;;;;;;5036458;28;20021;-62
2021/06/21 11:07:19;;;;;;;4.68;0.52;;;26.70;95.40;;;;;;5034168;28;20046;-63
2021/06/21 11:09:49;;;;;;;;;;;26.60;95.70;;;;;;5037395;28;20049;-62
2021/06/21 11:12:21;;;;;;;3.25;0.50;;;26.70;95.00;;;;;;5036456;28;19995;-62
2021/06/21 11:15:09;;;;;;;0.68;0.30;;;26.60;96.70;;;;;;5036770;28;20044;-63
2021/06/21 11:17:50;;;;;;;2.00;0.80;;;28.10;96.10;;;;;;5036379;28;20075;-62
2021/06/21 11:20:37;;;;;;;1.75;0.47;;;30.00;93.90;;;;;;5036404;28;20481;-63
2021/06/21 11:23:06;;;;;;;2.47;0.30;;;31.80;91.40;;;;;;5036801;28;20057;-63
2021/06/21 11:25:47;;;;;;;1.00;0.30;;;31.60;88.80;;;;;;5036332;28;20026;-63
2021/06/21 11:28:36;;;;;;;1.15;0.20;;;30.40;90.30;;;;;;5036516;28;20485;-63
2021/06/21 11:31:34;;;;;;;1.23;0.38;;;29.20;91.70;;;;;;5036009;28;20476;-62
2021/06/21 11:34:03;;;;;;;6.45;0.80;;;28.10;91.70;;;;;;4983542;28;20038;-62
2021/06/21 11:36:48;;;;;;;0.88;0.30;;;27.00;91.80;;;;;;5030371;28;20030;-62
2021/06/21 11:39:27;;;;;;;2.33;0.55;;;25.80;93.40;;;;;;5040779;28;20029;-62
2021/06/21 11:42:02;;;;;;;1.50;0.50;;;24.90;94.90;;;;;;5040105;28;20112;-62
2021/06/21 11:44:40;;;;;;;8.75;0.63;;;24.30;96.30;;;;;;5040245;28;20021;-62
2021/06/21 11:47:23;;;;;;;0.43;0.30;;;23.70;98.10;;;;;;5040369;28;20081;-62
2021/06/21 11:49:51;;;;;;;1.67;0.30;;;23.50;99.10;;;;;;5040020;28;20022;-62
2021/06/21 11:52:19;;;;;;;3.75;0.30;;;23.60;99.70;;;;;;5040492;28;20026;-62
2021/06/21 11:54:46;;;;;;;3.50;0.52;;;24.20;99.90;;;;;;5040148;28;20100;-63
2021/06/21 11:57:13;;;;;;;3.00;0.90;;;25.10;98.90;;;;;;5040044;28;20089;-62
2021/06/21 11:59:41;;;;;;;0.98;0.38;;;25.50;97.50;;;;;;5040415;28;20079;-62
2021/06/21 12:02:25;;;;;;;0.82;0.30;;;25.60;97.40;;;;;;5040066;28;20505;-62
2021/06/21 12:04:59;;;;;;;1.42;0.50;;;25.30;97.30;;;;;;5040071;28;20029;-62
2021/06/21 12:07:37;;;;;;;1.48;0.40;;;25.10;97.30;;;;;;5039740;28;20029;-62
2021/06/21 12:10:18;;;;;;;1.85;0.70;;;25.20;98.30;;;;;;5039853;28;20030;-62
2021/06/21 12:12:46;;;;;;;1.08;0.30;;;26.50;99.90;;;;;;5039736;28;20045;-62
2021/06/21 12:15:15;;;;;;;0.32;0.20;;;28.60;95.40;;;;;;5040128;28;20090;-62
2021/06/21 12:17:41;;;;;;;0.50;0.30;;;29.60;95.60;;;;;;5039702;28;20029;-62
2021/06/21 12:20:19;;;;;;;0.95;0.30;;;29.20;93.60;;;;;;5039747;28;20025;-62
2021/06/21 12:23:01;;;;;;;0.30;0.20;;;28.10;92.40;;;;;;5020085;28;20029;-63
2021/06/21 12:25:42;;;;;;;4.60;0.82;;;26.60;94.40;;;;;;5019719;28;20025;-62
2021/06/21 12:28:20;;;;;;;0.85;0.30;;;25.50;95.80;;;;;;5020128;28;20014;-62
2021/06/21 12:30:58;;;;;;;0.50;0.30;;;24.70;97.50;;;;;;5036929;28;20068;-62
2021/06/21 12:33:30;;;;;;;0.43;0.13;;;24.30;99.30;;;;;;5039186;28;20030;-61
2021/06/21 12:36:09;;;;;;;2.05;0.57;;;24.20;99.90;;;;;;5039753;28;20048;-62
2021/06/21 12:38:36;;;;;;;0.68;0.35;;;24.20;99.90;;;;;;5039390;28;20021;-62
2021/06/21 12:41:17;;;;;;;1.25;0.57;;;24.50;99.90;;;;;;5039528;28;20032;-62
2021/06/21 12:44:05;;;;;;;0.85;0.30;;;24.90;99.90;;;;;;5039556;28;20021;-62
2021/06/21 12:46:34;;;;;;;0.60;0.20;;;24.80;98.30;;;;;;5039201;28;20544;-62
2021/06/21 12:49:08;;;;;;;3.85;0.55;;;24.80;99.90;;;;;;5038408;28;20032;-62
2021/06/21 12:51:35;;;;;;;1.65;0.32;;;24.80;99.90;;;;;;5038983;28;20120;-62
2021/06/21 12:54:01;;;;;;;1.15;0.30;;;24.90;99.90;;;;;;5039358;28;20018;-62
2021/06/21 12:56:30;;;;;;;0.30;0.20;;;25.30;99.90;;;;;;5038904;28;20033;-63
2021/06/21 12:58:58;;;;;;;2.00;0.30;;;25.80;99.30;;;;;;5038922;28;20073;-62
2021/06/21 13:01:33;;;;;;;1.38;0.40;;;26.00;98.00;;;;;;5038973;28;20079;-62
2021/06/21 13:04:12;;;;;;;0.38;0.30;;;26.50;99.40;;;;;;5038749;28;20018;-62
2021/06/21 13:06:39;;;;;;;1.67;0.30;;;26.70;97.20;;;;;;5039079;28;20029;-62
2021/06/21 13:09:09;;;;;;;0.82;0.30;;;26.50;94.40;;;;;;5038738;28;20024;-63
2021/06/21 13:12:04;;;;;;;0.52;0.20;;;26.00;97.70;;;;;;5038840;28;20033;-62
2021/06/21 13:14:36;;;;;;;0.22;0.20;;;25.90;95.80;;;;;;5026021;28;20043;-62
2021/06/21 13:17:16;;;;;;;1.98;0.30;;;25.80;94.00;;;;;;5038486;28;20474;-63
2021/06/21 13:19:43;;;;;;;0.65;0.10;;;26.50;97.00;;;;;;5038698;28;20108;-62
2021/06/21 13:22:13;;;;;;;1.13;0.10;;;28.20;96.80;;;;;;5038509;28;20026;-63
2021/06/21 13:24:39;;;;;;;0.50;0.20;;;30.20;94.30;;;;;;5038871;28;20556;-63